Erith, United Kingdom
Current Conditions -  °F | °C
As of 12:50 AM on Sunday 28 Dec 2014 (Local Time) from EGLC Reporting Station
Few Clouds Few Clouds  
Wind Chill: 31°   Ceiling: Unl
Heat Index: 37°   Visibility: 6mi
Dew Point: 32°   Wind: 8mph
Humidity: 81%   Direction: 350°N
Pressure: 30"   Gusts: NA
Location:  51.49°N, 0.15°E
Report Text: EGLC 280050Z AUTO 35007KT 9999 FEW035/// 03/00 Q1016
Loading
Personal Weather Stations






























Interactive Weather Map New forecast layout! Learn more

10-Day Weather Forecast

Advertisements
Track Severe Weather on mobile